Time;durP1;ratioP1;P1;durP2;ratioP2;P2;SDS_P1;SDS_P2;PMS_P1;PMS_P2;Temp;Humidity;BMP_temperature;BMP_pressure;BME280_temperature;BME280_humidity;BME280_pressure;Samples;Min_cycle;Max_cycle;Signal;HPM_P1;HPM_P2
2023/06/25 00:00:22;;;;;;;6.45;5.70;;;19.30;99.90;;;;;;5012831;28;20401;-63
2023/06/25 00:02:48;;;;;;;8.55;6.38;;;19.40;99.90;;;;;;4976819;28;20052;-63
2023/06/25 00:05:14;;;;;;;12.48;8.10;;;19.40;99.90;;;;;;4977422;28;20041;-63
2023/06/25 00:07:43;;;;;;;10.90;7.85;;;19.40;99.90;;;;;;4989119;28;20497;-63
2023/06/25 00:10:09;;;;;;;7.07;6.18;;;19.40;99.90;;;;;;4994085;28;20045;-63
2023/06/25 00:12:35;;;;;;;12.63;7.80;;;19.30;99.90;;;;;;5008928;28;20778;-63
2023/06/25 00:15:01;;;;;;;10.35;6.80;;;19.40;99.90;;;;;;5009212;28;21161;-64
2023/06/25 00:17:27;;;;;;;11.93;8.05;;;19.30;99.90;;;;;;5008583;28;20071;-63
2023/06/25 00:19:56;;;;;;;11.35;7.70;;;19.30;99.90;;;;;;5006708;28;20064;-63
2023/06/25 00:22:27;;;;;;;8.98;6.95;;;19.30;99.90;;;;;;4977441;28;20030;-60
2023/06/25 00:24:52;;;;;;;7.85;6.28;;;19.30;99.90;;;;;;5009409;28;20494;-62
2023/06/25 00:27:19;;;;;;;7.72;5.25;;;19.20;99.90;;;;;;5007566;28;20041;-64
2023/06/25 00:29:45;;;;;;;8.70;5.28;;;19.20;99.90;;;;;;5007081;28;20414;-63
2023/06/25 00:32:13;;;;;;;6.35;4.97;;;19.20;99.90;;;;;;5009478;28;20099;-63
2023/06/25 00:34:41;;;;;;;7.50;5.30;;;19.20;99.90;;;;;;4979607;28;20072;-62
2023/06/25 00:37:16;;;;;;;7.00;5.40;;;19.10;99.90;;;;;;4983347;28;20128;-63
2023/06/25 00:39:44;;;;;;;11.00;5.65;;;19.10;99.90;;;;;;5011463;28;20091;-63
2023/06/25 00:42:09;;;;;;;7.50;6.05;;;19.10;99.90;;;;;;5007185;28;20038;-63
2023/06/25 00:44:40;;;;;;;9.23;6.68;;;19.00;99.90;;;;;;4992315;28;20044;-63
2023/06/25 00:47:16;;;;;;;7.97;6.50;;;19.00;99.90;;;;;;4994113;28;20633;-64
2023/06/25 00:49:44;;;;;;;9.85;7.05;;;18.90;99.90;;;;;;5012968;28;20037;-63
2023/06/25 00:52:12;;;;;;;7.70;6.28;;;18.80;99.90;;;;;;5010471;28;20045;-62
2023/06/25 00:54:43;;;;;;;8.25;6.05;;;18.70;99.90;;;;;;4992847;28;20409;-62
2023/06/25 00:57:10;;;;;;;6.78;6.05;;;18.70;99.90;;;;;;5013392;28;20052;-63
2023/06/25 00:59:39;;;;;;;7.88;6.60;;;18.60;99.90;;;;;;5008831;28;20128;-64
2023/06/25 01:02:25;;;;;;;7.72;6.93;;;18.60;99.90;;;;;;5010052;28;20180;-62
2023/06/25 01:05:12;;;;;;;7.82;7.00;;;18.60;99.90;;;;;;5005531;28;20052;-63
2023/06/25 01:07:43;;;;;;;9.05;6.40;;;18.50;99.90;;;;;;5010105;28;20430;-61
2023/06/25 01:10:11;;;;;;;7.90;6.65;;;18.50;99.90;;;;;;5006570;28;20049;-63
2023/06/25 01:12:37;;;;;;;6.97;5.90;;;18.50;99.90;;;;;;5008641;28;20049;-63
2023/06/25 01:15:04;;;;;;;6.40;5.70;;;18.50;99.90;;;;;;4977227;28;20055;-63
2023/06/25 01:17:30;;;;;;;7.55;6.00;;;18.50;99.90;;;;;;5004694;28;20053;-59
2023/06/25 01:19:56;;;;;;;11.93;7.05;;;18.50;99.90;;;;;;4992894;28;20041;-59
2023/06/25 01:22:32;;;;;;;7.70;6.05;;;18.50;99.90;;;;;;5008930;28;20387;-60
2023/06/25 01:24:58;;;;;;;9.07;7.22;;;18.50;99.90;;;;;;5009687;28;20081;-60
2023/06/25 01:27:24;;;;;;;9.30;6.57;;;18.40;99.90;;;;;;4993313;28;20055;-59
2023/06/25 01:29:50;;;;;;;7.22;6.43;;;18.50;99.90;;;;;;5010243;28;20061;-60
2023/06/25 01:32:17;;;;;;;8.02;6.03;;;18.50;99.90;;;;;;4970249;28;20119;-60
2023/06/25 01:34:44;;;;;;;9.25;7.05;;;18.50;99.90;;;;;;4975848;28;20048;-59
2023/06/25 01:37:10;;;;;;;11.93;7.13;;;18.50;99.90;;;;;;4993161;28;20041;-59
2023/06/25 01:39:36;;;;;;;7.70;6.60;;;18.40;99.90;;;;;;4996460;28;20046;-59
2023/06/25 01:42:02;;;;;;;12.85;7.75;;;18.40;99.90;;;;;;5014218;28;20040;-59
2023/06/25 01:44:30;;;;;;;10.93;7.45;;;18.40;99.90;;;;;;5014178;28;20440;-59
2023/06/25 01:46:56;;;;;;;10.85;7.43;;;18.40;99.90;;;;;;5012205;28;20041;-59
2023/06/25 01:49:23;;;;;;;9.70;7.75;;;18.40;99.90;;;;;;5011097;28;20164;-60
2023/06/25 01:51:49;;;;;;;11.23;7.32;;;18.40;99.90;;;;;;5015272;28;20064;-59
2023/06/25 01:54:15;;;;;;;12.05;6.80;;;18.40;99.90;;;;;;5013560;28;20387;-60
2023/06/25 01:56:42;;;;;;;9.93;7.47;;;18.40;99.90;;;;;;5012447;28;20043;-59
2023/06/25 01:59:08;;;;;;;10.55;7.57;;;18.40;99.90;;;;;;5012786;28;22072;-61
2023/06/25 02:01:34;;;;;;;10.98;7.90;;;18.40;99.90;;;;;;5011992;28;20041;-60
2023/06/25 02:03:59;;;;;;;13.10;7.38;;;18.40;99.90;;;;;;5012962;28;20045;-59
2023/06/25 02:06:25;;;;;;;10.90;7.05;;;18.40;99.90;;;;;;5010116;28;20081;-59
2023/06/25 02:08:51;;;;;;;12.15;7.50;;;18.40;99.90;;;;;;4990178;28;20049;-60
2023/06/25 02:11:17;;;;;;;12.65;8.00;;;18.40;99.90;;;;;;5009572;28;20038;-59
2023/06/25 02:13:43;;;;;;;13.32;8.13;;;18.30;99.90;;;;;;5009700;28;20045;-60
2023/06/25 02:16:08;;;;;;;9.82;7.93;;;18.30;99.90;;;;;;4994250;28;20056;-60
2023/06/25 02:18:35;;;;;;;13.63;8.98;;;18.30;99.90;;;;;;5010123;28;20049;-59
2023/06/25 02:21:01;;;;;;;11.48;8.82;;;18.30;99.90;;;;;;4993320;28;20385;-59
2023/06/25 02:23:27;;;;;;;12.35;8.77;;;18.40;99.90;;;;;;5008866;28;20041;-59
2023/06/25 02:25:53;;;;;;;10.63;9.00;;;18.30;99.90;;;;;;5010154;28;20049;-60
2023/06/25 02:28:19;;;;;;;12.30;8.55;;;18.40;99.90;;;;;;5009680;28;20116;-59
2023/06/25 02:30:45;;;;;;;12.43;8.30;;;18.40;99.90;;;;;;5009049;28;20053;-59
2023/06/25 02:33:10;;;;;;;12.40;8.45;;;18.40;99.90;;;;;;5008744;28;20060;-59
2023/06/25 02:35:36;;;;;;;12.15;8.15;;;18.40;99.90;;;;;;5010955;28;20363;-59
2023/06/25 02:38:02;;;;;;;11.43;8.68;;;18.40;99.90;;;;;;5011321;28;20069;-60
2023/06/25 02:40:28;;;;;;;11.57;8.63;;;18.40;99.90;;;;;;4988489;28;20048;-59
2023/06/25 02:42:54;;;;;;;13.48;8.52;;;18.40;99.90;;;;;;5010543;28;20049;-59
2023/06/25 02:45:20;;;;;;;13.77;8.15;;;18.30;99.90;;;;;;4986727;28;20045;-60
2023/06/25 02:47:46;;;;;;;12.98;9.65;;;18.30;99.90;;;;;;5010897;28;20121;-59
2023/06/25 02:50:12;;;;;;;13.63;9.55;;;18.40;99.90;;;;;;5007984;28;20037;-60
2023/06/25 02:52:38;;;;;;;12.68;9.00;;;18.30;99.90;;;;;;5010790;28;20048;-59
2023/06/25 02:55:04;;;;;;;10.95;8.98;;;18.30;99.90;;;;;;5007196;28;20486;-59
2023/06/25 02:57:30;;;;;;;11.20;9.05;;;18.30;99.90;;;;;;5006802;28;20064;-60
2023/06/25 02:59:56;;;;;;;13.05;9.52;;;18.30;99.90;;;;;;4991653;28;20076;-59
2023/06/25 03:02:22;;;;;;;12.88;9.20;;;18.30;99.90;;;;;;4990224;28;20468;-60
2023/06/25 03:04:48;;;;;;;14.10;9.57;;;18.30;99.90;;;;;;5005881;28;20096;-59
2023/06/25 03:07:13;;;;;;;13.15;9.60;;;18.30;99.90;;;;;;4977345;28;20390;-59
2023/06/25 03:09:39;;;;;;;12.40;9.45;;;18.30;99.90;;;;;;5007742;28;20529;-60
2023/06/25 03:12:05;;;;;;;14.30;9.52;;;18.30;99.90;;;;;;4991289;28;20046;-59
2023/06/25 03:14:31;;;;;;;13.25;9.45;;;18.20;99.90;;;;;;5008637;28;20172;-59
2023/06/25 03:16:57;;;;;;;13.60;9.70;;;18.20;99.90;;;;;;5006118;28;20060;-58
2023/06/25 03:19:23;;;;;;;14.68;10.15;;;18.20;99.90;;;;;;5007170;28;20045;-60
2023/06/25 03:21:49;;;;;;;14.38;10.85;;;18.20;99.90;;;;;;5008812;28;20045;-59
2023/06/25 03:24:14;;;;;;;15.73;9.98;;;18.20;99.90;;;;;;4987902;28;20050;-59
2023/06/25 03:26:40;;;;;;;14.20;10.40;;;18.20;99.90;;;;;;4984463;28;20042;-59
2023/06/25 03:29:06;;;;;;;14.23;9.65;;;18.10;99.90;;;;;;4987409;28;20084;-59
2023/06/25 03:31:32;;;;;;;17.08;10.85;;;18.20;99.90;;;;;;5003604;28;20173;-60
2023/06/25 03:33:58;;;;;;;14.13;10.32;;;18.20;99.90;;;;;;4980425;28;20191;-60
2023/06/25 03:36:24;;;;;;;17.10;10.77;;;18.20;99.90;;;;;;5005922;28;20077;-59
2023/06/25 03:38:50;;;;;;;14.80;10.43;;;18.20;99.90;;;;;;5008416;28;20475;-60
2023/06/25 03:41:15;;;;;;;15.45;11.10;;;18.10;99.90;;;;;;5010265;28;20124;-59
2023/06/25 03:43:41;;;;;;;12.57;10.30;;;18.10;99.90;;;;;;4981527;28;20050;-60
2023/06/25 03:46:07;;;;;;;12.93;10.50;;;18.10;99.90;;;;;;5000617;28;20081;-60
2023/06/25 03:48:33;;;;;;;14.63;10.93;;;18.10;99.90;;;;;;4999835;28;20148;-60
2023/06/25 03:50:58;;;;;;;13.10;10.52;;;18.20;99.90;;;;;;5006871;28;20525;-60
2023/06/25 03:53:26;;;;;;;13.95;10.35;;;18.20;99.90;;;;;;4975146;28;20045;-60
2023/06/25 03:55:51;;;;;;;14.50;9.65;;;18.20;99.90;;;;;;5009355;28;20060;-59
2023/06/25 03:58:17;;;;;;;13.80;10.82;;;18.20;99.90;;;;;;5009191;28;20046;-59
2023/06/25 04:00:44;;;;;;;12.25;9.32;;;18.30;99.90;;;;;;5013086;28;20042;-60
2023/06/25 04:03:09;;;;;;;14.27;10.23;;;18.30;99.90;;;;;;5008295;28;20510;-59
2023/06/25 04:05:35;;;;;;;13.25;10.20;;;18.30;99.90;;;;;;5006988;28;20052;-59
2023/06/25 04:08:01;;;;;;;13.75;9.70;;;18.30;99.90;;;;;;5009780;28;20072;-60
2023/06/25 04:10:27;;;;;;;12.63;9.23;;;18.30;99.90;;;;;;5003865;28;20041;-60
2023/06/25 04:12:52;;;;;;;15.10;10.02;;;18.40;99.90;;;;;;5005719;28;20436;-60
2023/06/25 04:15:18;;;;;;;13.02;9.45;;;18.40;99.90;;;;;;5008047;28;20121;-59
2023/06/25 04:17:46;;;;;;;13.02;9.15;;;18.40;99.90;;;;;;5006431;28;20049;-60
2023/06/25 04:20:12;;;;;;;12.05;8.68;;;18.50;99.90;;;;;;5006013;28;20041;-60
2023/06/25 04:22:38;;;;;;;11.13;8.75;;;18.50;99.90;;;;;;4998537;28;20521;-59
2023/06/25 04:25:05;;;;;;;12.02;8.82;;;18.50;99.90;;;;;;5007818;28;20038;-59
2023/06/25 04:27:30;;;;;;;11.80;8.57;;;18.60;99.90;;;;;;5009843;28;20100;-59
2023/06/25 04:29:56;;;;;;;12.60;8.93;;;18.60;99.90;;;;;;4992166;28;20061;-60
2023/06/25 04:32:22;;;;;;;12.77;9.32;;;18.60;99.90;;;;;;4975039;28;20049;-59
2023/06/25 04:34:47;;;;;;;11.13;8.75;;;18.70;99.90;;;;;;4990244;28;20045;-59
2023/06/25 04:37:13;;;;;;;11.60;8.32;;;18.70;99.90;;;;;;5006789;28;20045;-60
2023/06/25 04:39:40;;;;;;;13.85;8.15;;;18.70;99.90;;;;;;5007656;28;20550;-59
2023/06/25 04:42:06;;;;;;;9.10;7.82;;;18.70;99.90;;;;;;4987026;28;20049;-60
2023/06/25 04:44:32;;;;;;;12.93;7.97;;;18.80;99.90;;;;;;4987993;28;20133;-59
2023/06/25 04:46:58;;;;;;;10.15;8.02;;;18.80;99.90;;;;;;5007116;28;20045;-59
2023/06/25 04:49:24;;;;;;;9.52;7.85;;;18.80;99.90;;;;;;4974917;28;20034;-60
2023/06/25 04:51:50;;;;;;;10.68;8.23;;;18.80;99.90;;;;;;4991725;28;20029;-60
2023/06/25 04:54:15;;;;;;;11.30;8.07;;;18.90;99.90;;;;;;5010613;28;20174;-59
2023/06/25 04:56:41;;;;;;;9.32;7.40;;;18.90;99.90;;;;;;5010532;28;20128;-59
2023/06/25 04:59:07;;;;;;;9.27;6.95;;;18.90;99.90;;;;;;5011007;28;20052;-60
2023/06/25 05:01:33;;;;;;;13.13;7.32;;;19.00;99.90;;;;;;5009632;28;20046;-60
2023/06/25 05:03:59;;;;;;;12.40;7.05;;;19.00;99.90;;;;;;4976400;28;20038;-59
2023/06/25 05:06:25;;;;;;;10.38;6.60;;;19.10;99.90;;;;;;5011191;28;21950;-59
2023/06/25 05:08:51;;;;;;;11.32;7.13;;;19.10;99.90;;;;;;4992341;28;20050;-59
2023/06/25 05:11:17;;;;;;;7.93;6.40;;;19.10;99.90;;;;;;5009519;28;20142;-59
2023/06/25 05:13:42;;;;;;;8.65;6.47;;;19.20;99.90;;;;;;5007524;28;20041;-60
2023/06/25 05:16:08;;;;;;;10.90;6.40;;;19.20;99.90;;;;;;5009556;28;20041;-60
2023/06/25 05:18:34;;;;;;;7.70;6.25;;;19.20;99.90;;;;;;4993097;28;20545;-59
2023/06/25 05:21:00;;;;;;;9.00;6.88;;;19.30;99.90;;;;;;5011984;28;20041;-57
2023/06/25 05:23:26;;;;;;;12.68;6.50;;;19.40;99.90;;;;;;4994109;28;20049;-58
2023/06/25 05:25:52;;;;;;;12.32;6.68;;;19.40;99.90;;;;;;5011759;28;20506;-59
2023/06/25 05:28:17;;;;;;;8.57;6.70;;;19.50;99.90;;;;;;5009608;28;20648;-59
2023/06/25 05:30:43;;;;;;;9.02;6.55;;;19.50;99.90;;;;;;5008265;28;20050;-60
2023/06/25 05:33:09;;;;;;;12.07;6.10;;;19.60;99.90;;;;;;5012737;28;20569;-60
2023/06/25 05:35:35;;;;;;;9.05;6.07;;;19.60;99.90;;;;;;4990047;28;20044;-59
2023/06/25 05:38:01;;;;;;;7.85;6.28;;;19.70;99.90;;;;;;5011989;28;20049;-59
2023/06/25 05:40:28;;;;;;;8.57;5.80;;;19.70;99.90;;;;;;5012096;28;20491;-60
2023/06/25 05:42:54;;;;;;;9.88;6.28;;;19.70;99.90;;;;;;5012058;28;20038;-59
2023/06/25 05:45:21;;;;;;;8.93;5.95;;;19.80;99.90;;;;;;5009596;28;20049;-60
2023/06/25 05:47:47;;;;;;;9.35;6.10;;;19.90;99.90;;;;;;4993360;28;20553;-59
2023/06/25 05:50:12;;;;;;;7.32;5.60;;;19.90;99.90;;;;;;5011462;28;20048;-60
2023/06/25 05:52:41;;;;;;;9.80;5.32;;;19.90;99.90;;;;;;5004436;28;20061;-59
2023/06/25 05:55:07;;;;;;;6.43;5.40;;;20.00;99.90;;;;;;5006663;28;20413;-60
2023/06/25 05:57:33;;;;;;;8.45;5.65;;;20.10;99.90;;;;;;4976574;28;20606;-59
2023/06/25 05:59:58;;;;;;;7.40;4.90;;;20.20;99.90;;;;;;4990474;28;20041;-60
2023/06/25 06:02:24;;;;;;;6.22;4.93;;;20.20;99.90;;;;;;4990313;28;20084;-59
2023/06/25 06:04:50;;;;;;;7.82;5.55;;;20.20;99.90;;;;;;4992334;28;20034;-59
2023/06/25 06:07:16;;;;;;;8.68;5.32;;;20.30;99.90;;;;;;5009939;28;20068;-60
2023/06/25 06:09:42;;;;;;;7.05;5.22;;;20.40;99.90;;;;;;4990273;28;23840;-60
2023/06/25 06:12:08;;;;;;;7.00;5.25;;;20.50;99.90;;;;;;5012609;28;20110;-59
2023/06/25 06:14:34;;;;;;;8.23;5.20;;;20.60;99.90;;;;;;5011593;28;20046;-60
2023/06/25 06:17:00;;;;;;;8.82;5.85;;;20.70;99.90;;;;;;5007166;28;21022;-60
2023/06/25 06:19:26;;;;;;;7.78;5.35;;;20.70;99.90;;;;;;4996328;28;22420;-60
2023/06/25 06:21:52;;;;;;;7.72;5.35;;;20.80;99.90;;;;;;5013021;28;20037;-60
2023/06/25 06:24:17;;;;;;;6.82;5.47;;;20.90;99.90;;;;;;4991575;28;20033;-58
2023/06/25 06:26:43;;;;;;;7.45;6.32;;;21.00;99.90;;;;;;4984276;28;20062;-59
2023/06/25 06:29:09;;;;;;;8.07;5.65;;;21.10;99.90;;;;;;4994072;28;20045;-59
2023/06/25 06:31:34;;;;;;;8.00;6.38;;;21.20;99.90;;;;;;5001018;28;20092;-59
2023/06/25 06:34:01;;;;;;;10.88;6.72;;;21.30;99.90;;;;;;5008861;28;20058;-59
2023/06/25 06:36:27;;;;;;;9.75;6.80;;;21.40;99.90;;;;;;4992477;28;20509;-59
2023/06/25 06:38:53;;;;;;;9.93;6.28;;;21.40;99.90;;;;;;4992980;28;20033;-59
2023/06/25 06:41:19;;;;;;;11.25;6.57;;;21.50;99.90;;;;;;5010316;28;20044;-60
2023/06/25 06:43:45;;;;;;;9.10;6.78;;;21.60;99.90;;;;;;4995347;28;20134;-60
2023/06/25 06:46:11;;;;;;;7.90;6.28;;;21.70;99.90;;;;;;5004532;28;20045;-61
2023/06/25 06:48:37;;;;;;;10.40;6.55;;;21.80;99.90;;;;;;5008067;28;20041;-59
2023/06/25 06:51:02;;;;;;;9.68;6.72;;;21.90;99.90;;;;;;5008647;28;20096;-60
2023/06/25 06:53:28;;;;;;;9.18;6.13;;;22.00;99.90;;;;;;4994054;28;20049;-59
2023/06/25 06:55:54;;;;;;;8.63;7.05;;;22.10;99.90;;;;;;5007064;28;20045;-60
2023/06/25 06:58:20;;;;;;;11.55;7.15;;;22.20;99.90;;;;;;5005597;28;20054;-60
2023/06/25 07:00:46;;;;;;;9.55;7.22;;;22.30;99.90;;;;;;4975943;28;20095;-59
2023/06/25 07:03:12;;;;;;;8.90;7.40;;;22.40;99.90;;;;;;4986872;28;20115;-59
2023/06/25 07:05:37;;;;;;;9.30;7.45;;;22.50;99.90;;;;;;5008952;28;20068;-60
2023/06/25 07:08:04;;;;;;;10.57;7.72;;;22.60;99.90;;;;;;4995328;28;20073;-60
2023/06/25 07:10:29;;;;;;;9.02;7.70;;;22.70;99.90;;;;;;4992269;28;20056;-60
2023/06/25 07:12:55;;;;;;;9.93;7.22;;;22.80;99.90;;;;;;4973551;28;20045;-60
2023/06/25 07:15:21;;;;;;;9.27;7.03;;;22.90;99.90;;;;;;4989149;28;20057;-59
2023/06/25 07:17:46;;;;;;;10.95;7.35;;;23.00;99.90;;;;;;5007850;28;20037;-60
2023/06/25 07:20:12;;;;;;;8.43;7.20;;;23.10;99.90;;;;;;5009196;28;20042;-59
2023/06/25 07:22:40;;;;;;;9.55;6.93;;;23.20;99.90;;;;;;5008541;28;20056;-59
2023/06/25 07:25:08;;;;;;;11.10;7.38;;;23.30;99.90;;;;;;5013342;28;20046;-60
2023/06/25 07:27:33;;;;;;;11.00;7.53;;;23.50;99.90;;;;;;5009760;28;20057;-60
2023/06/25 07:29:59;;;;;;;13.18;8.63;;;23.60;99.90;;;;;;4993627;28;20113;-60
2023/06/25 07:32:25;;;;;;;11.40;8.65;;;23.70;99.90;;;;;;5014054;28;20378;-59
2023/06/25 07:34:51;;;;;;;11.45;9.32;;;23.80;99.70;;;;;;5009928;28;20113;-60
2023/06/25 07:37:16;;;;;;;10.85;8.70;;;23.90;99.40;;;;;;4989603;28;20042;-59
2023/06/25 07:39:42;;;;;;;13.40;9.00;;;23.90;99.00;;;;;;4982014;28;21044;-60
2023/06/25 07:42:08;;;;;;;13.60;8.35;;;24.00;99.00;;;;;;4991775;28;20371;-60
2023/06/25 07:44:33;;;;;;;14.27;9.30;;;24.10;98.90;;;;;;5009390;28;20056;-60
2023/06/25 07:46:59;;;;;;;11.75;8.27;;;24.30;98.60;;;;;;5011790;28;20376;-59
2023/06/25 07:49:25;;;;;;;11.77;8.18;;;24.40;98.40;;;;;;4999532;28;20041;-61
2023/06/25 07:51:51;;;;;;;10.13;8.75;;;24.40;98.30;;;;;;5001048;28;20108;-59
2023/06/25 07:54:17;;;;;;;14.50;7.90;;;24.40;98.40;;;;;;4998004;28;20141;-59
2023/06/25 07:56:44;;;;;;;10.77;8.48;;;24.60;98.10;;;;;;5007818;28;20432;-60
2023/06/25 07:59:12;;;;;;;9.52;8.30;;;24.60;98.00;;;;;;4974681;28;20061;-59
2023/06/25 08:01:38;;;;;;;10.07;8.00;;;24.80;98.10;;;;;;5000290;28;20396;-60
2023/06/25 08:04:04;;;;;;;9.68;8.07;;;24.90;97.70;;;;;;4984985;28;20042;-61
2023/06/25 08:06:29;;;;;;;12.13;8.77;;;25.00;97.60;;;;;;5006506;28;20040;-61
2023/06/25 08:08:55;;;;;;;9.30;7.95;;;25.10;97.20;;;;;;4969564;28;21199;-61
2023/06/25 08:11:21;;;;;;;10.30;7.93;;;25.20;97.00;;;;;;4995740;28;20270;-60
2023/06/25 08:13:47;;;;;;;8.77;7.65;;;25.30;96.90;;;;;;5003019;28;20052;-59
2023/06/25 08:16:12;;;;;;;9.80;7.78;;;25.40;96.90;;;;;;4988577;28;20755;-60
2023/06/25 08:18:38;;;;;;;9.57;8.30;;;25.50;96.30;;;;;;4979286;28;20045;-60
2023/06/25 08:21:04;;;;;;;11.88;7.93;;;25.60;95.90;;;;;;5002708;28;20426;-61
2023/06/25 08:23:29;;;;;;;9.88;7.10;;;25.70;95.60;;;;;;4988209;28;20048;-61
2023/06/25 08:25:55;;;;;;;9.25;7.88;;;25.80;95.60;;;;;;5010741;28;20046;-61
2023/06/25 08:28:21;;;;;;;10.20;8.52;;;25.90;95.70;;;;;;5002535;28;20041;-61
2023/06/25 08:30:47;;;;;;;9.07;7.75;;;26.00;95.30;;;;;;4974150;28;20069;-60
2023/06/25 08:33:13;;;;;;;9.07;7.97;;;26.10;94.90;;;;;;4930152;28;20117;-61
2023/06/25 08:35:39;;;;;;;10.35;7.80;;;26.20;94.60;;;;;;4944819;28;20071;-62
2023/06/25 08:38:04;;;;;;;11.23;7.65;;;26.40;94.60;;;;;;4929332;28;20050;-62
2023/06/25 08:40:31;;;;;;;9.85;7.43;;;26.50;94.30;;;;;;4933286;28;20528;-63
2023/06/25 08:42:57;;;;;;;10.68;7.38;;;26.60;93.80;;;;;;4943602;28;20062;-61
2023/06/25 08:45:23;;;;;;;7.35;6.57;;;26.60;93.40;;;;;;4925431;28;20859;-61
2023/06/25 08:47:54;;;;;;;9.07;7.25;;;26.70;93.00;;;;;;4910212;28;20054;-63
2023/06/25 08:50:20;;;;;;;8.93;7.05;;;26.80;92.50;;;;;;4941583;28;20109;-62
2023/06/25 08:52:47;;;;;;;9.25;7.03;;;26.80;92.40;;;;;;4925968;28;20126;-61
2023/06/25 08:55:14;;;;;;;7.75;6.90;;;26.90;91.80;;;;;;4936418;28;20067;-62
2023/06/25 08:57:40;;;;;;;17.23;7.00;;;27.00;91.70;;;;;;4920749;28;20176;-62
2023/06/25 09:00:07;;;;;;;5.93;5.32;;;27.10;91.60;;;;;;4938046;28;20051;-63
2023/06/25 09:02:34;;;;;;;7.78;6.30;;;27.20;91.40;;;;;;4942159;28;20640;-62
2023/06/25 09:05:07;;;;;;;9.65;6.18;;;27.40;90.90;;;;;;4937503;28;22258;-63
2023/06/25 09:07:37;;;;;;;7.07;5.78;;;27.50;90.40;;;;;;4938498;28;20102;-63
2023/06/25 09:10:07;;;;;;;6.47;5.80;;;27.60;90.10;;;;;;4920988;28;20086;-63
2023/06/25 09:12:33;;;;;;;8.43;5.75;;;27.70;88.80;;;;;;4926175;28;20610;-63
2023/06/25 09:14:59;;;;;;;6.35;5.20;;;27.80;88.10;;;;;;4936299;28;20047;-63
2023/06/25 09:17:25;;;;;;;6.32;4.90;;;27.90;86.90;;;;;;4938044;28;20518;-63
2023/06/25 09:19:51;;;;;;;14.05;5.43;;;28.00;86.10;;;;;;4933741;28;21167;-62
2023/06/25 09:22:17;;;;;;;7.40;5.47;;;28.00;85.00;;;;;;4911310;28;20125;-63
2023/06/25 09:24:44;;;;;;;7.00;5.15;;;28.10;83.50;;;;;;4922992;28;20130;-63
2023/06/25 09:27:10;;;;;;;6.60;5.15;;;28.20;82.30;;;;;;4908896;28;20038;-63
2023/06/25 09:29:37;;;;;;;6.55;4.93;;;28.20;81.80;;;;;;4902351;28;20125;-63
2023/06/25 09:32:10;;;;;;;6.18;4.97;;;28.30;81.30;;;;;;4922619;28;20437;-60
2023/06/25 09:34:39;;;;;;;8.25;5.25;;;28.40;79.50;;;;;;4928733;28;20058;-62
2023/06/25 09:37:05;;;;;;;5.68;4.95;;;28.60;78.70;;;;;;4940794;28;20070;-61
2023/06/25 09:39:31;;;;;;;5.18;4.32;;;28.70;77.30;;;;;;4940795;28;20053;-61
2023/06/25 09:41:57;;;;;;;5.20;4.30;;;28.80;75.30;;;;;;4944737;28;20368;-60
2023/06/25 09:44:24;;;;;;;5.57;4.53;;;28.80;75.30;;;;;;4927173;28;20046;-61
2023/06/25 09:46:53;;;;;;;5.22;4.30;;;28.90;74.70;;;;;;4942709;28;20049;-60
2023/06/25 09:49:20;;;;;;;5.90;4.50;;;29.00;73.00;;;;;;4945095;28;20126;-59
2023/06/25 09:52:10;;;;;;;5.93;4.72;;;29.10;73.10;;;;;;4952964;28;20128;-61
2023/06/25 09:54:40;;;;;;;6.32;5.10;;;29.20;73.90;;;;;;4943513;28;20520;-60
2023/06/25 09:57:14;;;;;;;6.68;5.13;;;29.20;72.20;;;;;;4936908;28;20082;-60
2023/06/25 09:59:40;;;;;;;8.07;5.13;;;29.40;73.00;;;;;;4960710;28;20043;-60
2023/06/25 10:02:07;;;;;;;6.53;5.05;;;29.50;72.30;;;;;;4960042;28;20114;-60
2023/06/25 10:04:34;;;;;;;6.28;5.00;;;29.60;72.60;;;;;;4954066;28;20905;-60
2023/06/25 10:07:01;;;;;;;7.07;5.50;;;29.70;72.20;;;;;;4953839;28;20359;-60
2023/06/25 10:09:27;;;;;;;8.95;4.93;;;29.80;71.60;;;;;;4953433;28;20039;-61
2023/06/25 10:11:56;;;;;;;4.97;4.50;;;29.90;71.30;;;;;;4957899;28;20045;-61
2023/06/25 10:14:23;;;;;;;7.80;4.97;;;30.00;70.80;;;;;;4954506;28;20038;-60
2023/06/25 10:16:56;;;;;;;7.40;4.93;;;30.10;69.90;;;;;;4951362;28;20053;-61
2023/06/25 10:19:26;;;;;;;6.28;4.70;;;30.10;68.30;;;;;;4953186;28;20196;-60
2023/06/25 10:22:00;;;;;;;7.57;4.55;;;30.20;68.90;;;;;;4955656;28;20538;-60
2023/06/25 10:24:40;;;;;;;5.43;4.25;;;30.30;69.10;;;;;;4948183;28;20581;-60
2023/06/25 10:27:06;;;;;;;8.13;4.93;;;30.50;69.60;;;;;;4954254;28;20043;-60
2023/06/25 10:29:39;;;;;;;6.15;4.90;;;30.50;68.60;;;;;;4952178;28;20047;-60
2023/06/25 10:32:06;;;;;;;6.72;4.85;;;30.50;68.30;;;;;;4936528;28;20051;-60
2023/06/25 10:34:36;;;;;;;5.57;5.03;;;30.60;68.20;;;;;;4936365;28;20114;-60
2023/06/25 10:37:04;;;;;;;5.28;4.78;;;30.70;67.90;;;;;;4935698;28;20066;-60
2023/06/25 10:39:40;;;;;;;5.13;4.43;;;30.80;67.80;;;;;;4926398;28;20474;-60
2023/06/25 10:42:07;;;;;;;8.68;5.75;;;30.90;66.10;;;;;;4935306;28;20039;-59
2023/06/25 10:44:33;;;;;;;7.45;4.97;;;31.00;65.80;;;;;;4938114;28;20050;-59
2023/06/25 10:47:10;;;;;;;7.93;5.18;;;31.00;65.10;;;;;;4938869;28;20040;-60
2023/06/25 10:49:36;;;;;;;6.55;5.10;;;31.10;65.30;;;;;;4937892;28;20046;-60
2023/06/25 10:52:04;;;;;;;5.57;4.78;;;31.20;65.70;;;;;;4931039;28;20103;-60
2023/06/25 10:54:33;;;;;;;8.63;5.03;;;31.40;66.10;;;;;;4934107;28;20055;-60
2023/06/25 10:57:09;;;;;;;6.97;5.00;;;31.50;64.50;;;;;;4935402;28;20043;-59
2023/06/25 10:59:36;;;;;;;7.05;5.78;;;31.60;63.70;;;;;;4921757;29;20066;-60
2023/06/25 11:02:17;;;;;;;5.25;4.75;;;31.70;63.70;;;;;;4934645;29;20547;-60
2023/06/25 11:05:02;;;;;;;7.80;5.05;;;31.90;64.80;;;;;;4927367;28;20154;-60
2023/06/25 11:07:28;;;;;;;6.63;4.70;;;32.10;64.60;;;;;;4936673;28;20396;-60
2023/06/25 11:09:55;;;;;;;7.75;4.70;;;32.30;63.20;;;;;;4912729;28;20047;-60
2023/06/25 11:12:21;;;;;;;5.90;4.65;;;32.30;62.50;;;;;;4932203;28;20058;-60
2023/06/25 11:14:46;;;;;;;6.68;4.75;;;32.40;62.30;;;;;;4929113;28;20043;-61
2023/06/25 11:17:16;;;;;;;7.63;5.05;;;32.40;61.80;;;;;;4921910;28;20101;-61
2023/06/25 11:19:42;;;;;;;5.50;4.55;;;32.50;61.40;;;;;;4930602;29;20043;-60
2023/06/25 11:22:08;;;;;;;8.27;4.53;;;32.60;61.60;;;;;;4933896;29;20040;-61
2023/06/25 11:24:35;;;;;;;5.68;4.45;;;32.70;60.60;;;;;;4901936;29;20047;-61
2023/06/25 11:27:01;;;;;;;6.20;4.22;;;32.80;60.00;;;;;;4935683;28;20448;-61
2023/06/25 11:29:38;;;;;;;10.73;4.45;;;32.90;60.00;;;;;;4938718;28;20059;-60
2023/06/25 11:32:11;;;;;;;7.20;4.32;;;32.90;60.60;;;;;;4920599;28;20117;-59
2023/06/25 11:34:43;;;;;;;6.80;4.00;;;33.10;59.70;;;;;;4951800;28;20055;-60
2023/06/25 11:37:15;;;;;;;5.82;4.18;;;33.20;59.40;;;;;;4929778;28;20047;-61
2023/06/25 11:39:43;;;;;;;4.40;4.00;;;33.30;57.90;;;;;;4936026;28;20047;-60
2023/06/25 11:42:11;;;;;;;5.75;3.78;;;33.40;58.10;;;;;;4950521;28;20620;-60
2023/06/25 11:44:37;;;;;;;4.88;3.92;;;33.40;56.80;;;;;;4951264;28;20046;-61
2023/06/25 11:47:03;;;;;;;4.20;3.80;;;33.50;56.80;;;;;;4927522;28;20053;-61
2023/06/25 11:49:29;;;;;;;5.55;3.42;;;33.50;57.10;;;;;;4911764;28;20415;-61
2023/06/25 11:51:55;;;;;;;4.40;3.42;;;33.50;57.00;;;;;;4924616;28;20047;-61
2023/06/25 11:54:20;;;;;;;3.92;3.15;;;33.60;56.10;;;;;;4939388;28;20114;-61
2023/06/25 11:56:46;;;;;;;4.70;3.30;;;33.60;54.90;;;;;;4948052;28;20142;-62
2023/06/25 11:59:12;;;;;;;3.63;3.22;;;33.60;55.10;;;;;;4947302;28;20050;-63
2023/06/25 12:01:37;;;;;;;4.95;2.90;;;33.60;54.40;;;;;;4937112;28;20043;-63
2023/06/25 12:04:03;;;;;;;3.10;2.90;;;33.70;55.30;;;;;;4914240;28;20057;-63
2023/06/25 12:06:29;;;;;;;6.20;3.88;;;33.80;55.20;;;;;;4950599;28;20066;-63
2023/06/25 12:08:55;;;;;;;3.22;2.92;;;33.80;54.60;;;;;;4948156;28;20046;-64
2023/06/25 12:11:20;;;;;;;4.55;3.22;;;33.80;53.60;;;;;;4938582;28;20496;-64
2023/06/25 12:13:46;;;;;;;4.90;2.80;;;33.80;53.30;;;;;;4945110;28;20049;-64
2023/06/25 12:16:12;;;;;;;6.03;2.80;;;33.90;53.80;;;;;;4933663;28;20054;-64
2023/06/25 12:18:38;;;;;;;4.80;2.80;;;33.90;53.30;;;;;;4945522;28;20054;-64
2023/06/25 12:21:04;;;;;;;3.20;2.63;;;34.00;52.10;;;;;;4939893;28;20135;-64
2023/06/25 12:23:29;;;;;;;4.25;2.90;;;34.00;51.40;;;;;;4930589;28;20058;-64
2023/06/25 12:25:55;;;;;;;6.35;2.92;;;33.90;51.70;;;;;;4948582;28;20452;-63
2023/06/25 12:28:21;;;;;;;2.90;2.60;;;33.90;52.30;;;;;;4946764;28;20043;-62
2023/06/25 12:30:46;;;;;;;6.05;2.80;;;34.00;53.00;;;;;;4934747;28;20105;-63
2023/06/25 12:33:12;;;;;;;5.70;2.90;;;34.20;53.50;;;;;;4949249;28;20045;-63
2023/06/25 12:35:38;;;;;;;8.93;3.20;;;34.40;53.00;;;;;;4951849;28;20035;-63
2023/06/25 12:38:04;;;;;;;3.28;2.80;;;34.50;52.90;;;;;;4935569;28;20034;-63
2023/06/25 12:40:29;;;;;;;3.72;2.70;;;34.60;51.30;;;;;;4947009;28;20055;-63